createdAt,value
2023-02-05T00:02:11.476Z,13.80
2023-02-05T00:04:56.933Z,13.52
2023-02-05T00:07:43.112Z,14.77
2023-02-05T00:10:28.355Z,13.07
2023-02-05T00:13:14.026Z,13.82
2023-02-05T00:15:59.590Z,12.60
2023-02-05T00:18:45.644Z,17.08
2023-02-05T00:21:31.242Z,18.00
2023-02-05T00:24:16.892Z,14.20
2023-02-05T00:27:02.693Z,15.75
2023-02-05T00:29:48.051Z,14.30
2023-02-05T00:32:33.571Z,12.82
2023-02-05T00:35:19.301Z,12.68
2023-02-05T00:38:04.736Z,12.38
2023-02-05T00:40:50.152Z,13.95
2023-02-05T00:43:35.473Z,12.82
2023-02-05T00:46:20.842Z,16.08
2023-02-05T00:49:06.401Z,18.27
2023-02-05T00:51:52.669Z,18.27
2023-02-05T00:54:38.005Z,19.80
2023-02-05T00:57:24.689Z,19.27
2023-02-05T01:00:10.444Z,18.15
2023-02-05T01:02:56.217Z,19.10
2023-02-05T01:05:42.015Z,19.65
2023-02-05T01:08:27.762Z,19.40
2023-02-05T01:11:13.216Z,18.48
2023-02-05T01:13:58.502Z,19.40
2023-02-05T01:16:44.238Z,18.92
2023-02-05T01:19:29.924Z,17.10
2023-02-05T01:22:16.009Z,17.05
2023-02-05T01:25:01.653Z,18.77
2023-02-05T01:27:47.672Z,16.23
2023-02-05T01:30:33.591Z,18.90
2023-02-05T01:33:19.807Z,17.50
2023-02-05T01:36:05.681Z,19.33
2023-02-05T01:38:54.301Z,17.02
2023-02-05T01:41:42.727Z,16.95
2023-02-05T01:44:29.953Z,14.27
2023-02-05T01:47:15.534Z,14.80
2023-02-05T01:50:01.087Z,14.38
2023-02-05T01:52:46.834Z,15.82
2023-02-05T01:55:33.371Z,12.43
2023-02-05T01:58:18.921Z,10.07
2023-02-05T02:01:04.448Z,9.05
2023-02-05T02:03:51.293Z,11.05
2023-02-05T02:06:37.382Z,9.77
2023-02-05T02:09:23.078Z,9.30
2023-02-05T02:12:10.486Z,8.77
2023-02-05T02:15:01.875Z,10.38
2023-02-05T02:17:52.486Z,9.10
2023-02-05T02:20:42.248Z,8.65
2023-02-05T02:23:49.370Z,7.22
2023-02-05T02:27:02.493Z,6.28
2023-02-05T02:33:06.950Z,6.82
2023-02-05T02:36:03.714Z,6.00
2023-02-05T02:39:13.120Z,6.82
2023-02-05T02:42:03.546Z,5.93
2023-02-05T02:45:02.410Z,5.35
2023-02-05T02:47:58.004Z,5.85
2023-02-05T02:50:48.452Z,8.32
2023-02-05T02:53:39.107Z,6.47
2023-02-05T02:56:27.474Z,6.88
2023-02-05T02:59:18.144Z,6.80
2023-02-05T03:02:06.422Z,5.93
2023-02-05T03:04:56.285Z,7.53
2023-02-05T03:07:54.297Z,5.63
2023-02-05T03:10:53.319Z,7.22
2023-02-05T03:13:39.149Z,9.38
2023-02-05T03:16:27.659Z,6.85
2023-02-05T03:19:13.210Z,6.88
2023-02-05T03:22:04.834Z,9.82
2023-02-05T03:24:51.566Z,8.38
2023-02-05T03:27:38.537Z,7.03
2023-02-05T03:30:33.372Z,7.65
2023-02-05T03:33:47.020Z,6.57
2023-02-05T03:36:58.863Z,7.65
2023-02-05T03:40:10.080Z,6.95
2023-02-05T03:43:01.188Z,6.40
2023-02-05T03:46:03.024Z,5.32
2023-02-05T03:49:17.186Z,5.43
2023-02-05T03:52:35.796Z,6.80
2023-02-05T03:55:31.180Z,5.18
2023-02-05T03:58:44.137Z,3.83
2023-02-05T04:01:29.870Z,7.18
2023-02-05T04:04:16.189Z,6.15
2023-02-05T04:07:02.777Z,6.20
2023-02-05T04:09:49.126Z,5.40
2023-02-05T04:12:34.564Z,6.25
2023-02-05T04:15:20.196Z,5.90
2023-02-05T04:18:10.365Z,6.07
2023-02-05T04:20:56.270Z,6.20
2023-02-05T04:23:44.760Z,8.80
2023-02-05T04:26:31.196Z,7.97
2023-02-05T04:29:21.112Z,6.00
2023-02-05T04:32:09.570Z,4.75
2023-02-05T04:34:55.211Z,4.45
2023-02-05T04:37:40.637Z,5.35
2023-02-05T04:40:27.279Z,4.63
2023-02-05T04:43:12.755Z,4.72
2023-02-05T04:45:58.382Z,7.45
2023-02-05T04:48:43.637Z,7.05
2023-02-05T04:51:29.042Z,9.38
2023-02-05T04:54:14.537Z,7.28
2023-02-05T04:57:00.317Z,11.45
2023-02-05T04:59:45.513Z,9.00
2023-02-05T05:02:32.081Z,16.77
2023-02-05T05:05:18.088Z,11.73
2023-02-05T05:08:03.510Z,16.45
2023-02-05T05:10:49.220Z,8.93
2023-02-05T05:13:35.682Z,9.48
2023-02-05T05:16:21.362Z,12.50
2023-02-05T05:19:07.169Z,13.23
2023-02-05T05:21:52.378Z,12.70
2023-02-05T05:24:38.380Z,14.85
2023-02-05T05:27:24.441Z,11.30
2023-02-05T05:30:10.752Z,12.48
2023-02-05T05:32:56.520Z,11.77
2023-02-05T05:35:41.880Z,12.35
2023-02-05T05:38:27.463Z,13.35
2023-02-05T05:41:40.094Z,13.88
2023-02-05T05:44:25.815Z,11.77
2023-02-05T05:47:11.020Z,14.95
2023-02-05T05:49:56.574Z,10.93
2023-02-05T05:52:42.271Z,13.88
2023-02-05T05:55:27.485Z,12.25
2023-02-05T05:58:13.306Z,10.90
2023-02-05T06:00:58.886Z,14.55
2023-02-05T06:03:44.498Z,11.13
2023-02-05T06:06:29.902Z,14.20
2023-02-05T06:09:15.324Z,18.10
2023-02-05T06:12:00.924Z,14.38
2023-02-05T06:14:46.359Z,20.55
2023-02-05T06:17:31.827Z,14.13
2023-02-05T06:20:17.549Z,12.07
2023-02-05T06:23:03.309Z,12.07
2023-02-05T06:25:48.874Z,18.77
2023-02-05T06:28:34.234Z,13.85
2023-02-05T06:31:19.852Z,17.10
2023-02-05T06:34:05.415Z,11.43
2023-02-05T06:36:51.350Z,12.13
2023-02-05T06:39:37.555Z,16.15
2023-02-05T06:42:23.327Z,22.63
2023-02-05T06:45:10.031Z,17.20
2023-02-05T06:47:56.338Z,16.15
2023-02-05T06:50:41.720Z,21.20
2023-02-05T06:53:27.549Z,16.20
2023-02-05T06:56:13.222Z,17.08
2023-02-05T06:58:58.695Z,17.33
2023-02-05T07:01:44.590Z,17.52
2023-02-05T07:04:31.031Z,16.08
2023-02-05T07:07:17.332Z,14.98
2023-02-05T07:10:03.176Z,14.10
2023-02-05T07:12:48.486Z,12.20
2023-02-05T07:15:37.386Z,10.02
2023-02-05T07:18:24.443Z,16.10
2023-02-05T07:21:14.089Z,13.00
2023-02-05T07:23:59.403Z,16.88
2023-02-05T07:26:45.283Z,19.85
2023-02-05T07:29:30.822Z,13.75
2023-02-05T07:32:16.456Z,18.80
2023-02-05T07:35:02.320Z,20.10
2023-02-05T07:37:47.428Z,18.77
2023-02-05T07:40:33.223Z,20.35
2023-02-05T07:43:18.354Z,20.83
2023-02-05T07:46:06.806Z,20.85
2023-02-05T07:48:52.043Z,19.15
2023-02-05T07:51:37.847Z,22.60
2023-02-05T07:54:24.776Z,24.00
2023-02-05T07:57:10.279Z,20.38
2023-02-05T07:59:55.639Z,31.58
2023-02-05T08:02:41.319Z,26.00
2023-02-05T08:05:27.122Z,31.45
2023-02-05T08:08:13.137Z,20.60
2023-02-05T08:11:04.506Z,25.98
2023-02-05T08:13:50.197Z,29.63
2023-02-05T08:16:35.626Z,24.50
2023-02-05T08:19:21.381Z,31.40
2023-02-05T08:22:06.649Z,27.90
2023-02-05T08:24:52.294Z,22.45
2023-02-05T08:27:39.327Z,24.20
2023-02-05T08:30:24.917Z,29.60
2023-02-05T08:33:10.450Z,21.92
2023-02-05T08:35:58.449Z,22.17
2023-02-05T08:38:44.050Z,22.98
2023-02-05T08:41:29.395Z,30.58
2023-02-05T08:44:14.996Z,29.60
2023-02-05T08:47:00.459Z,28.85
2023-02-05T08:49:46.109Z,25.55
2023-02-05T08:52:31.650Z,32.97
2023-02-05T08:55:20.433Z,27.15
2023-02-05T08:58:05.754Z,30.15
2023-02-05T09:00:51.847Z,32.85
2023-02-05T09:03:37.790Z,29.65
2023-02-05T09:06:23.600Z,26.60
2023-02-05T09:09:09.715Z,31.05
2023-02-05T09:11:55.244Z,29.48
2023-02-05T09:14:41.141Z,25.58
2023-02-05T09:17:27.257Z,24.63
2023-02-05T09:20:13.213Z,29.25
2023-02-05T09:22:58.531Z,26.27
2023-02-05T09:25:44.334Z,28.52
2023-02-05T09:28:29.883Z,29.67
2023-02-05T09:31:18.848Z,31.15
2023-02-05T09:34:04.458Z,25.77
2023-02-05T09:36:49.666Z,28.92
2023-02-05T09:40:18.557Z,22.88
2023-02-05T09:42:49.082Z,26.73
2023-02-05T09:45:56.766Z,20.58
2023-02-05T09:48:57.395Z,23.60
2023-02-05T09:51:56.062Z,23.00
2023-02-05T09:54:44.994Z,20.13
2023-02-05T09:57:37.061Z,29.30
2023-02-05T10:00:45.697Z,32.40
2023-02-05T10:03:44.651Z,19.55
2023-02-05T10:06:52.659Z,28.23
2023-02-05T10:09:51.304Z,23.08
2023-02-05T10:13:04.020Z,25.08
2023-02-05T10:16:04.502Z,25.45
2023-02-05T10:18:52.632Z,29.42
2023-02-05T10:21:38.471Z,23.27
2023-02-05T10:24:38.846Z,19.75
2023-02-05T10:27:39.412Z,25.83
2023-02-05T10:30:36.862Z,24.77
2023-02-05T10:33:44.371Z,26.90
2023-02-05T10:36:29.774Z,24.88
2023-02-05T10:39:18.194Z,22.48
2023-02-05T10:42:15.795Z,24.30
2023-02-05T10:45:17.461Z,27.45
2023-02-05T10:48:13.962Z,21.02
2023-02-05T10:51:15.335Z,25.42
2023-02-05T10:54:01.271Z,20.17
2023-02-05T10:56:47.865Z,23.85
2023-02-05T10:59:38.450Z,20.00
2023-02-05T11:02:31.426Z,24.73
2023-02-05T11:05:38.168Z,23.02
2023-02-05T11:08:44.686Z,27.10
2023-02-05T11:11:31.968Z,20.95
2023-02-05T11:14:28.438Z,25.50
2023-02-05T11:17:16.814Z,22.85
2023-02-05T11:20:13.840Z,21.35
2023-02-05T11:23:21.188Z,37.70
2023-02-05T11:26:20.571Z,26.67
2023-02-05T11:29:20.931Z,14.60
2023-02-05T11:32:19.633Z,23.23
2023-02-05T11:35:19.832Z,24.13
2023-02-05T11:38:15.673Z,19.63
2023-02-05T11:41:05.567Z,23.17
2023-02-05T11:43:52.389Z,21.83
2023-02-05T11:46:44.352Z,26.00
2023-02-05T11:49:37.791Z,23.80
2023-02-05T11:52:29.437Z,18.27
2023-02-05T11:55:29.905Z,26.13
2023-02-05T11:58:37.579Z,17.70
2023-02-05T12:01:24.527Z,24.63
2023-02-05T12:04:13.168Z,20.45
2023-02-05T12:07:14.665Z,21.17
2023-02-05T12:10:00.167Z,24.73
2023-02-05T12:12:59.341Z,23.50
2023-02-05T12:16:01.571Z,19.17
2023-02-05T12:18:57.244Z,25.35
2023-02-05T12:21:59.928Z,17.05
2023-02-05T12:24:48.451Z,19.25
2023-02-05T12:28:06.223Z,19.83
2023-02-05T12:30:58.079Z,22.95
2023-02-05T12:33:58.672Z,22.00
2023-02-05T12:37:22.192Z,23.00
2023-02-05T12:40:36.025Z,20.90
2023-02-05T12:43:46.357Z,22.15
2023-02-05T12:47:13.942Z,19.98
2023-02-05T12:50:26.881Z,22.27
2023-02-05T12:53:39.821Z,24.67
2023-02-05T12:56:31.509Z,16.33
2023-02-05T12:59:40.859Z,24.27
2023-02-05T13:02:31.471Z,19.30
2023-02-05T13:05:31.048Z,22.90
2023-02-05T13:08:31.749Z,20.88
2023-02-05T13:11:31.930Z,24.45
2023-02-05T13:14:36.786Z,23.77
2023-02-05T13:17:30.938Z,25.38
2023-02-05T13:20:50.014Z,30.50
2023-02-05T13:23:56.929Z,23.90
2023-02-05T13:27:04.000Z,24.75
2023-02-05T13:29:51.904Z,21.67
2023-02-05T13:32:40.303Z,25.85
2023-02-05T13:35:31.373Z,20.27
2023-02-05T13:38:41.111Z,25.00
2023-02-05T13:41:57.279Z,20.70
2023-02-05T13:45:14.703Z,23.63
2023-02-05T13:48:18.654Z,19.63
2023-02-05T13:51:22.188Z,25.25
2023-02-05T13:54:50.734Z,25.15
2023-02-05T13:58:09.939Z,27.17
2023-02-05T14:01:03.605Z,25.05
2023-02-05T14:04:04.114Z,22.15
2023-02-05T14:07:02.289Z,23.65
2023-02-05T14:09:56.372Z,24.05
2023-02-05T14:12:41.852Z,27.05
2023-02-05T14:15:39.616Z,29.85
2023-02-05T14:18:40.276Z,27.42
2023-02-05T14:21:31.753Z,28.73
2023-02-05T14:24:46.901Z,23.58
2023-02-05T14:27:48.929Z,34.10
2023-02-05T14:30:57.219Z,28.42
2023-02-05T14:33:43.888Z,27.90
2023-02-05T14:36:33.159Z,25.20
2023-02-05T14:39:25.277Z,27.98
2023-02-05T14:42:21.180Z,26.10
2023-02-05T14:45:07.105Z,22.67
2023-02-05T14:47:53.938Z,26.70
2023-02-05T14:50:40.579Z,27.98
2023-02-05T14:53:26.775Z,29.20
2023-02-05T14:56:26.052Z,28.98
2023-02-05T14:59:31.968Z,28.70
2023-02-05T15:02:59.489Z,27.52
2023-02-05T15:05:44.898Z,26.33
2023-02-05T15:08:45.636Z,31.40
2023-02-05T15:12:04.413Z,27.25
2023-02-05T15:14:54.631Z,32.03
2023-02-05T15:17:49.617Z,26.00
2023-02-05T15:20:40.135Z,27.80
2023-02-05T15:23:35.513Z,27.52
2023-02-05T15:26:41.629Z,22.73
2023-02-05T15:29:48.623Z,22.42
2023-02-05T15:32:42.918Z,20.77
2023-02-05T15:35:30.815Z,28.58
2023-02-05T15:38:44.143Z,30.65
2023-02-05T15:41:33.397Z,28.77
2023-02-05T15:44:34.129Z,31.25
2023-02-05T15:47:24.514Z,31.63
2023-02-05T15:50:14.462Z,24.05
2023-02-05T15:53:00.253Z,31.42
2023-02-05T15:55:51.119Z,25.45
2023-02-05T15:58:37.674Z,26.88
2023-02-05T16:01:30.056Z,29.73
2023-02-05T16:04:37.330Z,28.52
2023-02-05T16:07:26.340Z,28.48
2023-02-05T16:10:21.959Z,27.00
2023-02-05T16:13:15.341Z,35.33
2023-02-05T16:16:06.827Z,22.83
2023-02-05T16:18:59.254Z,24.35
2023-02-05T16:21:50.773Z,22.08
2023-02-05T16:24:41.326Z,29.67
2023-02-05T16:27:44.900Z,29.98
2023-02-05T16:30:51.579Z,24.02
2023-02-05T16:33:47.373Z,26.77
2023-02-05T16:36:37.383Z,27.35
2023-02-05T16:39:29.501Z,30.27
2023-02-05T16:42:30.130Z,30.05
2023-02-05T16:45:26.070Z,27.20
2023-02-05T16:48:20.204Z,35.25
2023-02-05T16:51:06.082Z,30.27
2023-02-05T16:53:52.330Z,32.40
2023-02-05T16:57:05.657Z,26.08
2023-02-05T17:00:00.500Z,31.15
2023-02-05T17:02:46.294Z,31.23
2023-02-05T17:05:34.078Z,37.88
2023-02-05T17:08:30.831Z,29.48
2023-02-05T17:11:35.542Z,25.85
2023-02-05T17:14:32.664Z,33.30
2023-02-05T17:17:19.061Z,29.75
2023-02-05T17:20:21.326Z,32.42
2023-02-05T17:23:08.926Z,22.70
2023-02-05T17:25:55.766Z,33.70
2023-02-05T17:28:45.181Z,27.10
2023-02-05T17:31:35.279Z,26.00
2023-02-05T17:34:20.472Z,29.15
2023-02-05T17:37:06.279Z,31.45
2023-02-05T17:39:51.666Z,31.40
2023-02-05T17:42:37.310Z,37.03
2023-02-05T17:45:30.348Z,32.60
2023-02-05T17:48:17.357Z,33.00
2023-02-05T17:51:02.875Z,38.20
2023-02-05T17:53:49.641Z,23.58
2023-02-05T17:56:35.050Z,30.88
2023-02-05T17:59:22.560Z,35.40
2023-02-05T18:02:09.035Z,34.42
2023-02-05T18:04:54.480Z,37.15
2023-02-05T18:07:44.537Z,27.05
2023-02-05T18:10:35.051Z,31.67
2023-02-05T18:13:22.096Z,31.75
2023-02-05T18:16:09.393Z,31.65
2023-02-05T18:18:55.595Z,35.42
2023-02-05T18:21:41.046Z,31.02
2023-02-05T18:24:26.798Z,35.65
2023-02-05T18:27:12.234Z,24.40
2023-02-05T18:29:57.964Z,27.73
2023-02-05T18:32:43.467Z,30.75
2023-02-05T18:35:28.789Z,30.13
2023-02-05T18:38:14.380Z,30.73
2023-02-05T18:41:09.548Z,30.00
2023-02-05T18:43:55.913Z,30.67
2023-02-05T18:46:41.246Z,31.95
2023-02-05T18:49:26.635Z,26.30
2023-02-05T18:52:14.077Z,32.50
2023-02-05T18:54:59.702Z,25.17
2023-02-05T18:57:45.016Z,28.77
2023-02-05T19:00:31.979Z,28.20
2023-02-05T19:03:17.345Z,29.77
2023-02-05T19:06:06.562Z,28.55
2023-02-05T19:08:51.897Z,41.03
2023-02-05T19:11:41.010Z,18.90
2023-02-05T19:14:27.140Z,21.50
2023-02-05T19:17:12.692Z,29.95
2023-02-05T19:19:58.568Z,28.45
2023-02-05T19:22:44.229Z,25.50
2023-02-05T19:25:31.253Z,29.88
2023-02-05T19:28:18.325Z,31.67
2023-02-05T19:31:06.116Z,21.35
2023-02-05T19:33:52.076Z,30.10
2023-02-05T19:36:37.819Z,25.52
2023-02-05T19:39:23.054Z,30.80
2023-02-05T19:42:08.666Z,24.95
2023-02-05T19:44:54.074Z,24.25
2023-02-05T19:47:40.079Z,30.83
2023-02-05T19:50:26.869Z,24.70
2023-02-05T19:53:12.344Z,23.05
2023-02-05T19:56:10.285Z,25.85
2023-02-05T19:58:56.128Z,28.10
2023-02-05T20:01:43.753Z,28.73
2023-02-05T20:04:29.936Z,27.00
2023-02-05T20:07:15.349Z,23.65
2023-02-05T20:10:00.943Z,25.42
2023-02-05T20:12:48.593Z,31.48
2023-02-05T20:15:38.052Z,31.02
2023-02-05T20:18:23.806Z,23.23
2023-02-05T20:21:12.794Z,26.85
2023-02-05T20:23:58.682Z,30.30
2023-02-05T20:26:45.558Z,23.42
2023-02-05T20:29:49.631Z,30.52
2023-02-05T20:32:35.217Z,26.05
2023-02-05T20:35:20.941Z,33.42
2023-02-05T20:38:06.226Z,29.23
2023-02-05T20:40:51.918Z,25.42
2023-02-05T20:43:37.533Z,26.20
2023-02-05T20:46:23.885Z,23.40
2023-02-05T20:49:09.813Z,24.27
2023-02-05T20:51:55.371Z,25.10
2023-02-05T20:54:40.951Z,29.40
2023-02-05T20:57:26.554Z,26.00
2023-02-05T21:00:12.886Z,22.55
2023-02-05T21:02:58.142Z,18.40
2023-02-05T21:05:44.791Z,20.05
2023-02-05T21:08:30.991Z,16.10
2023-02-05T21:11:17.927Z,28.33
2023-02-05T21:14:04.031Z,26.38
2023-02-05T21:16:49.570Z,25.23
2023-02-05T21:19:34.971Z,25.45
2023-02-05T21:22:20.711Z,29.08
2023-02-05T21:25:06.676Z,21.50
2023-02-05T21:27:52.979Z,34.38
2023-02-05T21:30:39.900Z,36.13
2023-02-05T21:33:26.616Z,34.42
2023-02-05T21:36:12.898Z,23.08
2023-02-05T21:38:58.578Z,21.38
2023-02-05T21:41:45.634Z,18.77
2023-02-05T21:44:30.984Z,16.38
2023-02-05T21:47:16.641Z,20.00
2023-02-05T21:50:02.458Z,21.23
2023-02-05T21:52:47.789Z,25.27
2023-02-05T21:55:33.811Z,15.43
2023-02-05T21:58:19.084Z,24.45
2023-02-05T22:01:13.284Z,20.90
2023-02-05T22:04:01.672Z,18.27
2023-02-05T22:06:46.953Z,28.42
2023-02-05T22:09:32.365Z,25.70
2023-02-05T22:12:17.864Z,19.45
2023-02-05T22:15:03.432Z,15.38
2023-02-05T22:17:48.762Z,19.02
2023-02-05T22:20:34.333Z,14.15
2023-02-05T22:23:20.954Z,17.73
2023-02-05T22:26:07.457Z,20.98
2023-02-05T22:28:53.469Z,12.98
2023-02-05T22:31:39.224Z,20.85
2023-02-05T22:34:24.611Z,25.98
2023-02-05T22:37:09.999Z,27.17
2023-02-05T22:39:55.800Z,25.88
2023-02-05T22:42:41.110Z,20.23
2023-02-05T22:45:30.049Z,30.20
2023-02-05T22:48:15.589Z,21.52
2023-02-05T22:51:04.245Z,23.23
2023-02-05T22:53:49.454Z,24.88
2023-02-05T22:56:35.082Z,21.48
2023-02-05T22:59:20.564Z,15.70
2023-02-05T23:02:06.117Z,18.35
2023-02-05T23:04:52.507Z,24.55
2023-02-05T23:07:38.047Z,26.33
2023-02-05T23:10:24.079Z,22.23
2023-02-05T23:13:09.422Z,32.33
2023-02-05T23:15:55.083Z,27.73
2023-02-05T23:18:41.888Z,25.27
2023-02-05T23:21:29.440Z,22.60
2023-02-05T23:24:15.833Z,24.90
2023-02-05T23:27:01.030Z,21.45
2023-02-05T23:29:46.673Z,24.65
2023-02-05T23:32:32.448Z,23.17
2023-02-05T23:35:17.740Z,16.20
2023-02-05T23:38:03.269Z,27.33
2023-02-05T23:40:48.675Z,18.02
2023-02-05T23:43:36.051Z,17.27
2023-02-05T23:46:21.658Z,26.98
2023-02-05T23:49:08.971Z,30.30
2023-02-05T23:51:55.349Z,18.42
2023-02-05T23:54:41.010Z,20.35
2023-02-05T23:57:28.680Z,24.73
